Time;durP1;ratioP1;P1;durP2;ratioP2;P2;SDS_P1;SDS_P2;PMS_P1;PMS_P2;Temp;Humidity;BMP_temperature;BMP_pressure;BME280_temperature;BME280_humidity;BME280_pressure;Samples;Min_cycle;Max_cycle;Signal;HPM_P1;HPM_P2
2023/07/18 00:01:14;;;;;;;0.00;0.00;;;17.40;94.30;;;;;;5051054;28;20178;-61
2023/07/18 00:03:40;;;;;;;0.00;0.00;;;17.40;94.70;;;;;;5051075;28;20560;-61
2023/07/18 00:06:06;;;;;;;0.00;0.00;;;17.40;94.90;;;;;;5051003;28;20653;-60
2023/07/18 00:08:31;;;;;;;0.00;0.00;;;17.30;95.10;;;;;;5050001;28;20189;-60
2023/07/18 00:10:57;;;;;;;0.00;0.00;;;17.30;95.40;;;;;;5050545;28;20227;-61
2023/07/18 00:13:24;;;;;;;0.08;0.08;;;17.30;95.80;;;;;;5050530;28;20172;-60
2023/07/18 00:15:49;;;;;;;0.00;0.00;;;17.20;96.00;;;;;;5050095;28;20550;-61
2023/07/18 00:18:15;;;;;;;0.00;0.00;;;17.20;96.60;;;;;;5050911;28;20181;-61
2023/07/18 00:20:41;;;;;;;0.00;0.00;;;17.20;96.30;;;;;;5050295;28;20658;-60
2023/07/18 00:23:09;;;;;;;0.00;0.00;;;17.20;96.60;;;;;;5050522;28;20183;-61
2023/07/18 00:25:35;;;;;;;0.00;0.00;;;17.10;96.70;;;;;;5049615;28;20181;-60
2023/07/18 00:28:01;;;;;;;0.00;0.00;;;17.20;97.10;;;;;;5050423;28;20231;-61
2023/07/18 00:30:27;;;;;;;0.00;0.00;;;17.10;97.30;;;;;;5050526;28;20193;-61
2023/07/18 00:32:52;;;;;;;0.00;0.00;;;17.20;97.90;;;;;;5050144;28;20264;-60
2023/07/18 00:35:18;;;;;;;0.00;0.00;;;17.20;98.40;;;;;;5050356;28;20645;-60
2023/07/18 00:37:44;;;;;;;0.00;0.00;;;17.10;98.80;;;;;;5050590;28;20273;-60
2023/07/18 00:40:12;;;;;;;0.00;0.00;;;17.00;99.00;;;;;;5050109;28;20200;-60
2023/07/18 00:42:38;;;;;;;0.00;0.00;;;17.00;98.70;;;;;;5050249;28;20594;-60
2023/07/18 00:45:06;;;;;;;0.05;0.05;;;16.90;98.80;;;;;;5050355;28;20177;-60
2023/07/18 00:47:40;;;;;;;0.10;0.10;;;16.90;99.00;;;;;;5049780;28;20185;-60
2023/07/18 00:50:13;;;;;;;0.00;0.00;;;16.80;99.20;;;;;;5050066;28;20238;-60
2023/07/18 00:52:41;;;;;;;0.00;0.00;;;16.80;99.40;;;;;;5049883;28;20381;-60
2023/07/18 00:55:10;;;;;;;0.00;0.00;;;16.70;99.60;;;;;;5048505;28;20657;-61
2023/07/18 00:57:38;;;;;;;0.00;0.00;;;16.70;99.90;;;;;;5046902;28;20200;-60
2023/07/18 01:00:11;;;;;;;0.00;0.00;;;16.70;99.90;;;;;;5042955;28;20177;-60
2023/07/18 01:02:38;;;;;;;0.00;0.00;;;16.60;99.90;;;;;;5048255;28;20194;-61
2023/07/18 01:05:04;;;;;;;0.00;0.00;;;16.60;99.90;;;;;;5042228;28;20185;-61
2023/07/18 01:07:29;;;;;;;0.00;0.00;;;16.60;99.90;;;;;;5053206;28;20185;-61
2023/07/18 01:10:25;;;;;;;0.00;0.00;;;16.50;99.90;;;;;;5052208;28;20280;-61
2023/07/18 01:12:52;;;;;;;0.00;0.00;;;16.50;99.90;;;;;;5053472;28;20189;-60
2023/07/18 01:15:18;;;;;;;0.00;0.00;;;16.40;99.90;;;;;;5053288;28;20273;-60
2023/07/18 01:17:45;;;;;;;0.00;0.00;;;16.40;99.90;;;;;;5053346;28;20173;-60
2023/07/18 01:20:18;;;;;;;0.00;0.00;;;16.40;99.90;;;;;;5053419;28;20660;-61
2023/07/18 01:22:48;;;;;;;0.00;0.00;;;16.40;99.90;;;;;;5053466;28;20590;-60
2023/07/18 01:25:16;;;;;;;0.00;0.00;;;16.40;99.90;;;;;;5053307;28;20173;-61
2023/07/18 01:27:46;;;;;;;0.00;0.00;;;16.40;99.90;;;;;;5053031;28;20520;-60
2023/07/18 01:30:12;;;;;;;0.00;0.00;;;16.40;99.90;;;;;;5053328;28;20193;-61
2023/07/18 01:32:38;;;;;;;0.00;0.00;;;16.40;99.90;;;;;;5053211;28;20220;-61
2023/07/18 01:35:06;;;;;;;0.00;0.00;;;16.30;99.90;;;;;;5053075;28;20177;-61
2023/07/18 01:37:32;;;;;;;0.25;0.25;;;16.30;99.90;;;;;;5052784;28;20181;-61
2023/07/18 01:39:59;;;;;;;0.00;0.00;;;16.20;99.90;;;;;;5053075;28;20665;-61
2023/07/18 01:42:24;;;;;;;0.00;0.00;;;16.20;99.90;;;;;;5052882;28;20188;-61
2023/07/18 01:44:50;;;;;;;0.00;0.00;;;16.20;99.90;;;;;;5052421;28;20260;-61
2023/07/18 01:47:15;;;;;;;0.00;0.00;;;16.10;99.90;;;;;;5052682;28;20170;-61
2023/07/18 01:49:41;;;;;;;0.00;0.00;;;16.00;99.90;;;;;;5052466;28;20303;-61
2023/07/18 01:52:07;;;;;;;0.00;0.00;;;16.00;99.90;;;;;;5053186;28;20201;-61
2023/07/18 01:54:32;;;;;;;0.00;0.00;;;16.00;99.90;;;;;;5052996;28;20281;-61
2023/07/18 01:56:58;;;;;;;0.00;0.00;;;15.90;99.90;;;;;;5053242;28;20315;-61
2023/07/18 01:59:23;;;;;;;0.00;0.00;;;15.90;99.90;;;;;;5052916;28;20169;-61
2023/07/18 02:01:51;;;;;;;0.00;0.00;;;15.90;99.90;;;;;;5052898;28;20181;-61
2023/07/18 02:04:16;;;;;;;0.00;0.00;;;15.90;99.90;;;;;;5053038;28;20173;-61
2023/07/18 02:06:42;;;;;;;0.00;0.00;;;15.80;99.90;;;;;;5052914;28;20182;-61
2023/07/18 02:09:09;;;;;;;0.00;0.00;;;15.80;99.90;;;;;;5051463;28;20553;-61
2023/07/18 02:11:35;;;;;;;0.00;0.00;;;15.80;99.90;;;;;;5052670;28;20644;-61
2023/07/18 02:14:03;;;;;;;0.00;0.00;;;15.70;99.90;;;;;;5052707;28;20228;-61
2023/07/18 02:16:29;;;;;;;0.00;0.00;;;15.70;99.90;;;;;;5052463;28;20193;-62
2023/07/18 02:18:56;;;;;;;0.00;0.00;;;15.70;99.90;;;;;;5051950;28;20174;-61
2023/07/18 02:21:22;;;;;;;0.00;0.00;;;15.60;99.90;;;;;;5052653;28;20655;-61
2023/07/18 02:23:47;;;;;;;0.00;0.00;;;15.60;99.90;;;;;;5052601;28;20189;-62
2023/07/18 02:26:14;;;;;;;0.00;0.00;;;15.60;99.90;;;;;;5052629;28;20173;-61
2023/07/18 02:28:39;;;;;;;0.00;0.00;;;15.60;99.90;;;;;;5052149;28;20295;-61
2023/07/18 02:31:05;;;;;;;0.03;0.03;;;15.50;99.90;;;;;;5052438;28;20308;-61
2023/07/18 02:33:30;;;;;;;0.00;0.00;;;15.50;99.90;;;;;;5052153;28;20518;-61
2023/07/18 02:35:56;;;;;;;0.00;0.00;;;15.50;99.90;;;;;;5052294;28;20189;-61
2023/07/18 02:38:22;;;;;;;0.00;0.00;;;15.50;99.90;;;;;;5052161;28;20189;-61
2023/07/18 02:40:49;;;;;;;0.05;0.05;;;15.50;99.90;;;;;;5052296;28;20190;-62
2023/07/18 02:43:14;;;;;;;0.00;0.00;;;15.50;99.90;;;;;;5052084;28;20181;-61
2023/07/18 02:45:40;;;;;;;0.00;0.00;;;15.40;99.90;;;;;;5052564;28;20178;-61
2023/07/18 02:48:06;;;;;;;0.03;0.03;;;15.40;99.90;;;;;;5052348;28;20572;-61
2023/07/18 02:50:31;;;;;;;0.00;0.00;;;15.40;99.90;;;;;;5052159;28;20273;-61
2023/07/18 02:52:58;;;;;;;0.00;0.00;;;15.40;99.90;;;;;;5051090;28;20670;-62
2023/07/18 02:55:24;;;;;;;0.00;0.00;;;15.40;99.90;;;;;;5051908;28;20177;-62
2023/07/18 02:57:51;;;;;;;0.10;0.10;;;15.40;99.90;;;;;;5051797;28;20701;-62
2023/07/18 03:00:20;;;;;;;0.00;0.00;;;15.40;99.90;;;;;;5052098;28;20173;-62
2023/07/18 03:02:48;;;;;;;0.00;0.00;;;15.40;99.90;;;;;;5051885;28;20216;-61
2023/07/18 03:05:18;;;;;;;0.00;0.00;;;15.30;99.90;;;;;;5051966;28;20189;-62
2023/07/18 03:07:44;;;;;;;0.00;0.00;;;15.30;99.90;;;;;;5052390;28;20177;-62
2023/07/18 03:10:10;;;;;;;0.00;0.00;;;15.30;99.90;;;;;;5051628;28;20179;-61
2023/07/18 03:12:35;;;;;;;0.00;0.00;;;15.20;99.90;;;;;;5051903;28;20213;-62
2023/07/18 03:15:02;;;;;;;0.00;0.00;;;15.20;99.90;;;;;;5051985;28;20169;-62
2023/07/18 03:17:27;;;;;;;0.00;0.00;;;15.20;99.90;;;;;;5051686;28;20182;-62
2023/07/18 03:19:53;;;;;;;0.00;0.00;;;15.20;99.90;;;;;;5051940;28;20648;-62
2023/07/18 03:22:19;;;;;;;0.00;0.00;;;15.20;99.90;;;;;;5051652;28;20272;-62
2023/07/18 03:24:47;;;;;;;0.00;0.00;;;15.20;99.90;;;;;;5051637;28;20204;-62
2023/07/18 03:27:13;;;;;;;0.00;0.00;;;15.20;99.90;;;;;;5047773;28;20188;-62
2023/07/18 03:29:38;;;;;;;0.00;0.00;;;15.20;99.90;;;;;;5051093;28;20601;-62
2023/07/18 03:32:04;;;;;;;0.00;0.00;;;15.20;99.90;;;;;;5051585;28;20619;-62
2023/07/18 03:34:30;;;;;;;0.00;0.00;;;15.20;99.90;;;;;;5051158;28;20204;-62
2023/07/18 03:36:56;;;;;;;0.00;0.00;;;15.20;99.90;;;;;;5051001;28;20181;-61
2023/07/18 03:39:21;;;;;;;0.00;0.00;;;15.20;99.90;;;;;;5042684;28;20174;-62
2023/07/18 03:41:47;;;;;;;0.00;0.00;;;15.20;99.90;;;;;;5050840;28;20189;-63
2023/07/18 03:44:12;;;;;;;0.00;0.00;;;15.20;99.90;;;;;;5051149;28;20640;-62
2023/07/18 03:46:38;;;;;;;0.00;0.00;;;15.20;99.90;;;;;;5049454;28;20188;-62
2023/07/18 03:49:03;;;;;;;0.00;0.00;;;15.20;99.90;;;;;;5050943;28;20192;-64
2023/07/18 03:51:29;;;;;;;0.00;0.00;;;15.20;99.90;;;;;;5050716;28;20606;-63
2023/07/18 03:53:54;;;;;;;0.00;0.00;;;15.30;99.90;;;;;;5049967;28;20178;-62
2023/07/18 03:56:20;;;;;;;0.00;0.00;;;15.30;99.90;;;;;;5051020;28;20200;-63
2023/07/18 03:58:46;;;;;;;0.00;0.00;;;15.40;99.90;;;;;;5050883;28;20174;-64
2023/07/18 04:01:12;;;;;;;0.00;0.00;;;15.30;99.90;;;;;;5051015;28;20223;-65
2023/07/18 04:03:38;;;;;;;0.00;0.00;;;15.40;99.90;;;;;;5051116;28;20165;-63
2023/07/18 04:06:03;;;;;;;0.00;0.00;;;15.40;99.90;;;;;;5051081;28;20851;-62
2023/07/18 04:08:29;;;;;;;0.00;0.00;;;15.40;99.90;;;;;;5050604;28;20201;-63
2023/07/18 04:10:59;;;;;;;0.00;0.00;;;15.50;99.90;;;;;;5050507;28;20552;-64
2023/07/18 04:13:25;;;;;;;0.00;0.00;;;15.50;99.90;;;;;;5050489;28;20215;-63
2023/07/18 04:15:54;;;;;;;0.00;0.00;;;15.50;99.90;;;;;;5050088;28;20226;-61
2023/07/18 04:18:20;;;;;;;0.08;0.08;;;15.50;99.90;;;;;;5049986;28;20185;-63
2023/07/18 04:20:46;;;;;;;0.00;0.00;;;15.50;99.90;;;;;;5048880;28;20663;-62
2023/07/18 04:23:11;;;;;;;0.00;0.00;;;15.60;99.90;;;;;;5050113;28;20247;-62
2023/07/18 04:25:54;;;;;;;0.00;0.00;;;15.60;99.90;;;;;;5050401;28;20282;-61
2023/07/18 04:28:20;;;;;;;0.00;0.00;;;15.60;99.90;;;;;;5048953;28;20648;-61
2023/07/18 04:30:45;;;;;;;0.00;0.00;;;15.70;99.90;;;;;;5050353;28;20288;-61
2023/07/18 04:33:12;;;;;;;0.00;0.00;;;15.80;99.90;;;;;;5050555;28;20196;-62
2023/07/18 04:35:39;;;;;;;0.00;0.00;;;15.90;99.90;;;;;;5050113;28;20182;-62
2023/07/18 04:38:05;;;;;;;0.00;0.00;;;16.10;99.90;;;;;;5048523;28;20189;-62
2023/07/18 04:40:31;;;;;;;0.00;0.00;;;16.40;99.90;;;;;;5049559;28;20174;-62
2023/07/18 04:42:56;;;;;;;0.00;0.00;;;16.70;99.90;;;;;;5054402;28;20192;-62
2023/07/18 04:45:22;;;;;;;0.00;0.00;;;17.00;99.90;;;;;;5054304;28;20178;-62
2023/07/18 04:47:47;;;;;;;0.00;0.00;;;17.40;99.90;;;;;;5054511;28;20192;-62
2023/07/18 04:50:13;;;;;;;0.00;0.00;;;17.80;99.90;;;;;;5052901;28;20641;-62
2023/07/18 04:52:39;;;;;;;0.00;0.00;;;18.10;99.90;;;;;;5054154;28;20217;-62
2023/07/18 04:55:05;;;;;;;0.00;0.00;;;18.40;99.90;;;;;;5054372;28;20170;-61
2023/07/18 04:57:30;;;;;;;0.00;0.00;;;18.80;99.90;;;;;;5054155;28;20193;-61
2023/07/18 04:59:56;;;;;;;0.00;0.00;;;19.20;99.20;;;;;;5054023;28;20181;-62
2023/07/18 05:02:21;;;;;;;0.00;0.00;;;19.30;98.50;;;;;;5053819;28;20539;-61
2023/07/18 05:04:48;;;;;;;0.00;0.00;;;19.50;98.40;;;;;;5053628;28;20182;-62
2023/07/18 05:07:15;;;;;;;0.00;0.00;;;19.80;98.00;;;;;;5053508;28;20258;-62
2023/07/18 05:09:40;;;;;;;0.00;0.00;;;20.20;97.70;;;;;;5054067;28;20275;-61
2023/07/18 05:12:06;;;;;;;0.00;0.00;;;20.70;96.90;;;;;;5053644;28;20213;-61
2023/07/18 05:14:32;;;;;;;0.00;0.00;;;21.10;96.00;;;;;;5053710;28;20196;-61
2023/07/18 05:16:57;;;;;;;0.00;0.00;;;21.60;95.30;;;;;;5053877;28;20651;-62
2023/07/18 05:19:23;;;;;;;0.00;0.00;;;21.90;94.10;;;;;;5053496;28;20185;-62
2023/07/18 05:21:50;;;;;;;0.00;0.00;;;22.20;93.30;;;;;;5053804;28;20277;-62
2023/07/18 05:24:15;;;;;;;0.08;0.08;;;22.20;92.60;;;;;;5053438;28;20196;-62
2023/07/18 05:26:42;;;;;;;0.00;0.00;;;22.30;92.10;;;;;;5053815;28;20227;-62
2023/07/18 05:29:07;;;;;;;0.00;0.00;;;22.40;91.40;;;;;;5053414;28;20225;-62
2023/07/18 05:31:33;;;;;;;0.00;0.00;;;22.40;91.40;;;;;;5053322;28;20613;-62
2023/07/18 05:33:58;;;;;;;0.00;0.00;;;22.20;91.30;;;;;;5053495;28;20184;-62
2023/07/18 05:36:25;;;;;;;0.00;0.00;;;21.90;91.10;;;;;;5053237;28;20296;-62
2023/07/18 05:38:51;;;;;;;0.00;0.00;;;21.80;91.40;;;;;;5053492;28;20586;-62
2023/07/18 05:41:16;;;;;;;0.00;0.00;;;22.20;91.50;;;;;;5053297;28;20197;-62
2023/07/18 05:43:42;;;;;;;0.00;0.00;;;22.70;90.70;;;;;;5053252;28;20485;-62
2023/07/18 05:46:08;;;;;;;0.00;0.00;;;23.30;89.20;;;;;;5053259;28;20297;-62
2023/07/18 05:48:33;;;;;;;0.00;0.00;;;23.90;87.10;;;;;;5053063;28;20254;-63
2023/07/18 05:51:00;;;;;;;0.00;0.00;;;24.60;84.80;;;;;;5052976;28;20209;-62
2023/07/18 05:53:26;;;;;;;0.00;0.00;;;25.00;82.70;;;;;;5051862;28;20178;-62
2023/07/18 05:55:55;;;;;;;0.00;0.00;;;25.10;80.00;;;;;;5053163;28;20335;-62
2023/07/18 05:58:20;;;;;;;0.03;0.03;;;25.00;78.40;;;;;;5052817;28;20641;-62
2023/07/18 06:00:46;;;;;;;0.00;0.00;;;25.00;77.20;;;;;;5053051;28;20535;-62
2023/07/18 06:03:12;;;;;;;0.00;0.00;;;24.70;75.80;;;;;;5052936;28;20171;-62
2023/07/18 06:05:38;;;;;;;0.13;0.13;;;24.40;76.40;;;;;;5052998;28;20568;-62
2023/07/18 06:08:04;;;;;;;0.00;0.00;;;24.20;77.20;;;;;;5053024;28;20219;-62
2023/07/18 06:10:30;;;;;;;0.00;0.00;;;24.20;77.60;;;;;;5052824;28;20250;-62
2023/07/18 06:12:56;;;;;;;0.00;0.00;;;24.40;77.80;;;;;;5052794;28;20228;-61
2023/07/18 06:15:21;;;;;;;0.20;0.20;;;24.50;77.10;;;;;;5052854;28;20703;-61
2023/07/18 06:17:47;;;;;;;0.05;0.05;;;25.10;76.80;;;;;;5052838;28;20177;-62
2023/07/18 06:20:13;;;;;;;0.00;0.00;;;25.90;74.10;;;;;;5052392;28;20714;-62
2023/07/18 06:22:39;;;;;;;0.00;0.00;;;26.70;72.20;;;;;;5052571;28;20177;-63
2023/07/18 06:25:06;;;;;;;0.25;0.25;;;27.40;69.10;;;;;;5052652;28;20177;-62
2023/07/18 06:27:31;;;;;;;0.00;0.00;;;28.10;66.50;;;;;;5052316;28;20231;-62
2023/07/18 06:29:57;;;;;;;0.00;0.00;;;28.60;62.30;;;;;;5052148;28;20625;-63
2023/07/18 06:32:23;;;;;;;0.00;0.00;;;28.70;60.50;;;;;;5052262;28;20225;-62
2023/07/18 06:34:49;;;;;;;0.00;0.00;;;29.20;60.00;;;;;;5052277;28;20181;-63
2023/07/18 06:37:15;;;;;;;0.00;0.00;;;29.50;58.00;;;;;;5047470;28;20236;-63
2023/07/18 06:39:40;;;;;;;0.00;0.00;;;29.70;56.70;;;;;;5032323;28;20178;-62
2023/07/18 06:42:08;;;;;;;0.30;0.10;;;30.00;56.20;;;;;;5032315;28;20184;-63
2023/07/18 06:44:34;;;;;;;0.00;0.00;;;30.30;54.90;;;;;;5032146;28;20166;-62
2023/07/18 06:47:00;;;;;;;0.00;0.00;;;30.60;54.40;;;;;;5032231;28;20273;-63
2023/07/18 06:49:26;;;;;;;0.00;0.00;;;31.00;53.60;;;;;;5032312;28;20175;-63
2023/07/18 06:51:52;;;;;;;0.00;0.00;;;31.30;52.40;;;;;;5032360;28;20213;-63
2023/07/18 06:54:18;;;;;;;0.00;0.00;;;31.60;50.50;;;;;;5032319;28;20174;-62
2023/07/18 06:56:45;;;;;;;0.00;0.00;;;31.60;50.40;;;;;;5032342;28;20542;-62
2023/07/18 06:59:11;;;;;;;0.00;0.00;;;31.70;50.20;;;;;;5032266;28;20178;-62
2023/07/18 07:01:36;;;;;;;0.00;0.00;;;31.90;49.40;;;;;;5032079;28;20170;-63
2023/07/18 07:04:02;;;;;;;0.00;0.00;;;32.10;50.00;;;;;;5031923;28;20522;-63
2023/07/18 07:06:28;;;;;;;0.00;0.00;;;32.30;48.90;;;;;;5032109;28;20223;-63
2023/07/18 07:08:53;;;;;;;0.00;0.00;;;32.60;47.90;;;;;;5031929;28;20188;-63
2023/07/18 07:11:19;;;;;;;0.00;0.00;;;32.90;47.10;;;;;;5031997;28;20205;-63
2023/07/18 07:13:45;;;;;;;0.25;0.25;;;33.20;47.20;;;;;;5032020;28;20188;-63
2023/07/18 07:16:10;;;;;;;0.00;0.00;;;33.80;46.70;;;;;;5031808;28;20187;-63
2023/07/18 07:18:36;;;;;;;0.00;0.00;;;34.10;45.60;;;;;;5031814;28;20204;-62
2023/07/18 07:21:02;;;;;;;0.00;0.00;;;34.20;44.20;;;;;;5031901;28;20173;-63
2023/07/18 07:23:31;;;;;;;0.00;0.00;;;34.00;43.60;;;;;;5043815;28;20177;-62
2023/07/18 07:25:57;;;;;;;0.00;0.00;;;33.80;44.10;;;;;;5051647;28;20231;-62
2023/07/18 07:28:23;;;;;;;0.00;0.00;;;33.90;43.90;;;;;;5051300;28;20220;-62
2023/07/18 07:30:50;;;;;;;0.00;0.00;;;34.10;43.60;;;;;;5051548;28;20268;-62
2023/07/18 07:33:15;;;;;;;0.00;0.00;;;34.10;43.60;;;;;;5051256;28;20648;-62
2023/07/18 07:35:43;;;;;;;0.00;0.00;;;34.00;42.80;;;;;;5033580;28;20180;-62
2023/07/18 07:38:09;;;;;;;0.00;0.00;;;33.70;43.30;;;;;;5051491;28;20199;-62
2023/07/18 07:40:34;;;;;;;0.00;0.00;;;33.60;43.90;;;;;;5051332;28;20173;-62
2023/07/18 07:43:00;;;;;;;0.00;0.00;;;33.50;43.90;;;;;;5051591;28;20724;-63
2023/07/18 07:45:26;;;;;;;0.00;0.00;;;33.60;43.70;;;;;;5051393;28;20529;-63
2023/07/18 07:47:51;;;;;;;0.00;0.00;;;33.90;43.30;;;;;;5051371;28;20169;-62
2023/07/18 07:50:17;;;;;;;0.00;0.00;;;34.00;42.60;;;;;;5051191;28;20537;-62
2023/07/18 07:52:43;;;;;;;0.00;0.00;;;33.90;42.20;;;;;;5051236;28;20220;-62
2023/07/18 07:55:11;;;;;;;0.10;0.10;;;33.80;42.50;;;;;;5051350;28;20334;-62
2023/07/18 07:57:37;;;;;;;0.00;0.00;;;33.60;43.50;;;;;;5051203;28;20290;-62
2023/07/18 08:00:03;;;;;;;0.00;0.00;;;33.80;42.90;;;;;;5051189;28;20615;-62
2023/07/18 08:02:29;;;;;;;0.00;0.00;;;34.00;43.20;;;;;;5051105;28;20841;-62
2023/07/18 08:04:54;;;;;;;0.00;0.00;;;34.10;42.30;;;;;;5051072;28;20290;-63
2023/07/18 08:07:20;;;;;;;0.00;0.00;;;34.10;42.50;;;;;;5051187;28;20181;-63
2023/07/18 08:09:46;;;;;;;0.00;0.00;;;34.00;42.30;;;;;;5051169;28;20230;-63
2023/07/18 08:12:12;;;;;;;0.00;0.00;;;33.90;42.30;;;;;;5051046;28;20319;-63
2023/07/18 08:14:38;;;;;;;0.00;0.00;;;34.00;42.20;;;;;;5051074;28;20183;-63
2023/07/18 08:17:04;;;;;;;0.00;0.00;;;34.20;41.90;;;;;;5054480;28;20176;-63
2023/07/18 08:19:32;;;;;;;0.00;0.00;;;34.20;42.70;;;;;;5054993;28;20230;-63
2023/07/18 08:21:58;;;;;;;0.10;0.10;;;34.30;42.40;;;;;;5055096;28;20179;-62
2023/07/18 08:24:23;;;;;;;0.00;0.00;;;34.40;42.40;;;;;;5055027;28;20186;-62
2023/07/18 08:26:49;;;;;;;0.00;0.00;;;34.60;43.20;;;;;;5055023;28;20608;-61
2023/07/18 08:29:14;;;;;;;0.00;0.00;;;34.70;42.70;;;;;;5054587;28;20278;-61
2023/07/18 08:31:41;;;;;;;0.00;0.00;;;34.50;41.90;;;;;;5054943;28;20220;-60
2023/07/18 08:34:06;;;;;;;0.00;0.00;;;34.70;42.50;;;;;;5054830;28;20169;-60
2023/07/18 08:36:35;;;;;;;0.00;0.00;;;35.00;41.60;;;;;;5054598;28;20715;-60
2023/07/18 08:39:01;;;;;;;0.00;0.00;;;35.10;41.00;;;;;;5054834;28;20173;-61
2023/07/18 08:41:27;;;;;;;0.10;0.10;;;35.10;41.20;;;;;;5054658;28;20180;-60
2023/07/18 08:43:54;;;;;;;0.00;0.00;;;35.20;40.80;;;;;;5054592;28;20712;-60
2023/07/18 08:46:19;;;;;;;0.00;0.00;;;35.00;40.50;;;;;;5054635;28;20181;-60
2023/07/18 08:48:46;;;;;;;0.00;0.00;;;34.90;40.80;;;;;;5054654;28;20272;-60
2023/07/18 08:51:12;;;;;;;0.00;0.00;;;34.90;40.60;;;;;;5054553;28;20203;-61
2023/07/18 08:53:41;;;;;;;0.00;0.00;;;34.90;40.50;;;;;;5054464;28;20185;-60
2023/07/18 08:56:10;;;;;;;0.00;0.00;;;35.00;41.80;;;;;;5054500;28;20656;-63
2023/07/18 08:58:37;;;;;;;0.00;0.00;;;35.00;40.50;;;;;;5054318;28;20173;-63
2023/07/18 09:01:06;;;;;;;0.00;0.00;;;34.70;39.00;;;;;;5054543;28;20223;-63
2023/07/18 09:03:32;;;;;;;0.00;0.00;;;34.50;39.60;;;;;;5054422;28;20200;-64
2023/07/18 09:06:02;;;;;;;0.00;0.00;;;34.50;41.20;;;;;;5054322;28;20185;-63
2023/07/18 09:08:31;;;;;;;0.00;0.00;;;34.70;41.50;;;;;;5054256;28;20215;-64
2023/07/18 09:11:03;;;;;;;0.00;0.00;;;34.80;41.20;;;;;;5054125;28;20207;-63
2023/07/18 09:13:37;;;;;;;0.00;0.00;;;34.80;42.00;;;;;;5054169;28;20240;-63
2023/07/18 09:16:23;;;;;;;0.00;0.00;;;34.90;41.40;;;;;;5054300;28;20208;-63
2023/07/18 09:18:55;;;;;;;0.00;0.00;;;34.50;39.60;;;;;;5053895;28;20201;-63
2023/07/18 09:21:23;;;;;;;0.00;0.00;;;34.30;40.60;;;;;;5053991;28;20173;-63
2023/07/18 09:23:49;;;;;;;0.00;0.00;;;34.30;41.90;;;;;;5053888;28;20184;-63
2023/07/18 09:26:19;;;;;;;0.00;0.00;;;34.40;42.60;;;;;;5053619;28;20177;-63
2023/07/18 09:28:46;;;;;;;0.00;0.00;;;34.50;41.20;;;;;;5053601;28;20731;-63
2023/07/18 09:31:16;;;;;;;0.00;0.00;;;34.70;40.40;;;;;;5053619;28;20667;-63
2023/07/18 09:33:42;;;;;;;0.03;0.03;;;34.60;39.50;;;;;;5053826;28;20176;-63
2023/07/18 09:36:14;;;;;;;0.00;0.00;;;34.50;40.60;;;;;;5053681;28;20185;-63
2023/07/18 09:38:40;;;;;;;0.00;0.00;;;34.60;40.30;;;;;;5053795;28;20167;-63
2023/07/18 09:41:06;;;;;;;0.00;0.00;;;34.40;40.50;;;;;;5053597;28;20533;-63
2023/07/18 09:43:33;;;;;;;0.00;0.00;;;34.20;40.00;;;;;;5053488;28;20196;-63
2023/07/18 09:46:00;;;;;;;0.00;0.00;;;34.10;39.40;;;;;;5053648;28;20173;-63
2023/07/18 09:48:27;;;;;;;0.00;0.00;;;33.90;39.60;;;;;;5053407;28;20219;-63
2023/07/18 09:50:55;;;;;;;0.00;0.00;;;34.00;41.40;;;;;;5053344;28;20839;-63
2023/07/18 09:53:23;;;;;;;0.00;0.00;;;34.10;40.50;;;;;;5053455;28;20181;-63
2023/07/18 09:55:50;;;;;;;0.00;0.00;;;34.20;39.60;;;;;;5053403;28;20205;-63
2023/07/18 09:58:19;;;;;;;0.00;0.00;;;34.40;41.10;;;;;;5053251;28;20648;-63
2023/07/18 10:00:44;;;;;;;0.00;0.00;;;34.30;41.10;;;;;;5053397;28;20173;-63
2023/07/18 10:03:11;;;;;;;0.28;0.10;;;34.10;41.50;;;;;;5053268;28;20191;-63
2023/07/18 10:05:37;;;;;;;0.00;0.00;;;33.80;40.80;;;;;;5053012;28;20503;-63
2023/07/18 10:08:06;;;;;;;0.00;0.00;;;33.70;40.70;;;;;;5053243;28;20177;-63
2023/07/18 10:10:31;;;;;;;0.00;0.00;;;33.60;40.80;;;;;;5053007;28;20184;-63
2023/07/18 10:12:59;;;;;;;0.00;0.00;;;33.40;42.00;;;;;;5053066;28;20690;-63
2023/07/18 10:15:25;;;;;;;0.00;0.00;;;33.20;42.60;;;;;;5053021;28;20718;-63
2023/07/18 10:17:51;;;;;;;0.00;0.00;;;32.70;41.10;;;;;;5052993;28;20556;-63
2023/07/18 10:20:31;;;;;;;0.00;0.00;;;32.20;41.50;;;;;;5052808;28;20177;-63
2023/07/18 10:22:58;;;;;;;0.00;0.00;;;31.90;44.30;;;;;;5052730;28;20580;-63
2023/07/18 10:25:31;;;;;;;0.03;0.03;;;31.70;44.20;;;;;;5052901;28;20177;-63
2023/07/18 10:27:58;;;;;;;0.15;0.15;;;31.60;44.20;;;;;;5052430;28;20181;-63
2023/07/18 10:30:35;;;;;;;0.00;0.00;;;31.80;43.70;;;;;;5052725;28;20656;-63
2023/07/18 10:33:03;;;;;;;0.00;0.00;;;32.10;43.40;;;;;;5052708;28;20354;-63
2023/07/18 10:35:28;;;;;;;0.00;0.00;;;32.40;44.40;;;;;;5052552;28;20184;-63
2023/07/18 10:37:56;;;;;;;0.00;0.00;;;32.70;44.00;;;;;;5052183;28;20257;-63
2023/07/18 10:40:39;;;;;;;0.00;0.00;;;32.60;42.00;;;;;;5052236;28;20263;-63
2023/07/18 10:43:07;;;;;;;0.00;0.00;;;32.30;42.20;;;;;;5052495;28;20180;-63
2023/07/18 10:45:41;;;;;;;0.00;0.00;;;32.30;42.50;;;;;;5052271;28;20177;-63
2023/07/18 10:48:13;;;;;;;0.00;0.00;;;32.40;42.10;;;;;;5052438;28;20181;-63
2023/07/18 10:50:40;;;;;;;0.00;0.00;;;32.20;42.30;;;;;;5052352;28;20625;-63
2023/07/18 10:53:10;;;;;;;0.00;0.00;;;32.10;43.10;;;;;;5052285;28;20188;-63
2023/07/18 10:55:36;;;;;;;0.00;0.00;;;32.00;42.30;;;;;;5052086;28;20687;-63
2023/07/18 10:58:01;;;;;;;0.00;0.00;;;32.00;42.20;;;;;;5052266;28;20204;-63
2023/07/18 11:00:27;;;;;;;0.00;0.00;;;32.40;43.10;;;;;;5052074;28;20174;-63
2023/07/18 11:02:52;;;;;;;0.00;0.00;;;32.80;43.30;;;;;;5051973;28;20551;-63
2023/07/18 11:05:18;;;;;;;0.00;0.00;;;33.00;42.60;;;;;;5051970;28;20272;-63
2023/07/18 11:07:47;;;;;;;0.00;0.00;;;32.80;42.40;;;;;;5052089;28;20248;-63
2023/07/18 11:10:13;;;;;;;0.00;0.00;;;32.80;43.00;;;;;;5051765;28;20196;-63
2023/07/18 11:12:40;;;;;;;0.00;0.00;;;32.60;43.90;;;;;;5051929;28;20228;-63
2023/07/18 11:15:08;;;;;;;0.00;0.00;;;32.40;42.20;;;;;;5051852;28;20184;-63
2023/07/18 11:17:34;;;;;;;0.00;0.00;;;32.30;43.00;;;;;;5051552;28;20702;-64
2023/07/18 11:20:00;;;;;;;0.00;0.00;;;32.00;43.00;;;;;;5051854;28;20174;-63
2023/07/18 11:22:26;;;;;;;0.00;0.00;;;31.60;44.60;;;;;;5051596;28;20181;-63
2023/07/18 11:24:52;;;;;;;0.00;0.00;;;31.20;43.50;;;;;;5051714;28;20680;-63
2023/07/18 11:27:26;;;;;;;0.00;0.00;;;31.10;44.30;;;;;;5051537;28;20174;-63
2023/07/18 11:29:58;;;;;;;0.00;0.00;;;31.00;45.60;;;;;;5051321;28;20229;-64
2023/07/18 11:32:40;;;;;;;0.00;0.00;;;31.00;45.60;;;;;;5051329;28;20209;-64
2023/07/18 11:35:18;;;;;;;0.00;0.00;;;31.00;45.60;;;;;;5051828;28;20178;-63
2023/07/18 11:37:46;;;;;;;0.00;0.00;;;31.00;44.90;;;;;;5031748;28;20524;-63
2023/07/18 11:40:21;;;;;;;0.00;0.00;;;31.10;46.60;;;;;;5031636;28;20635;-63
2023/07/18 11:42:49;;;;;;;0.00;0.00;;;31.00;46.60;;;;;;5031703;28;20253;-63
2023/07/18 11:45:16;;;;;;;0.00;0.00;;;31.00;46.50;;;;;;5031420;28;20184;-63
2023/07/18 11:47:44;;;;;;;0.00;0.00;;;30.90;45.60;;;;;;5031650;28;20240;-63
2023/07/18 11:50:10;;;;;;;0.00;0.00;;;31.00;46.90;;;;;;5030578;28;20556;-63
2023/07/18 11:52:35;;;;;;;0.00;0.00;;;31.20;48.00;;;;;;5031185;28;20296;-63
2023/07/18 11:55:02;;;;;;;0.00;0.00;;;31.60;46.30;;;;;;5031416;28;20697;-63
2023/07/18 11:57:28;;;;;;;0.00;0.00;;;31.90;44.50;;;;;;5031388;28;20261;-63
2023/07/18 11:59:53;;;;;;;0.00;0.00;;;32.20;44.10;;;;;;5031392;28;20261;-63
2023/07/18 12:02:19;;;;;;;0.00;0.00;;;32.30;43.70;;;;;;5031192;28;20236;-63
2023/07/18 12:04:45;;;;;;;0.00;0.00;;;32.50;44.90;;;;;;5031212;28;20232;-63
2023/07/18 12:07:11;;;;;;;0.00;0.00;;;32.40;43.80;;;;;;5031202;28;20188;-63
2023/07/18 12:09:36;;;;;;;0.00;0.00;;;32.50;43.00;;;;;;5031188;28;20201;-63
2023/07/18 12:12:03;;;;;;;0.00;0.00;;;32.40;43.30;;;;;;5031209;28;20222;-64
2023/07/18 12:14:29;;;;;;;0.00;0.00;;;32.30;43.90;;;;;;5031085;28;20240;-63
2023/07/18 12:16:55;;;;;;;0.00;0.00;;;32.00;43.60;;;;;;5031118;28;20182;-63
2023/07/18 12:19:21;;;;;;;0.00;0.00;;;31.90;44.10;;;;;;5031122;28;20269;-62
2023/07/18 12:21:49;;;;;;;0.00;0.00;;;31.60;44.30;;;;;;5031183;28;20188;-62
2023/07/18 12:24:15;;;;;;;0.00;0.00;;;31.40;45.20;;;;;;5049461;28;20763;-63
2023/07/18 12:26:40;;;;;;;0.00;0.00;;;31.30;46.60;;;;;;5050956;28;20182;-63
2023/07/18 12:29:06;;;;;;;0.00;0.00;;;31.30;45.10;;;;;;5050818;28;20754;-63
2023/07/18 12:31:33;;;;;;;0.00;0.00;;;31.30;45.10;;;;;;5050907;28;20810;-63
2023/07/18 12:33:58;;;;;;;0.00;0.00;;;31.40;46.10;;;;;;5051012;28;20280;-63
2023/07/18 12:36:24;;;;;;;0.00;0.00;;;31.60;46.40;;;;;;5050711;28;20261;-63
2023/07/18 12:38:49;;;;;;;0.00;0.00;;;32.00;46.40;;;;;;5050857;28;20535;-63
2023/07/18 12:41:16;;;;;;;0.00;0.00;;;32.30;45.00;;;;;;5050723;28;20193;-63
2023/07/18 12:43:42;;;;;;;0.00;0.00;;;32.40;44.50;;;;;;5050824;28;20510;-63
2023/07/18 12:46:08;;;;;;;0.00;0.00;;;32.50;44.00;;;;;;5050878;28;20181;-63